Decoded Metar for VNKT (KATHMANDU in NEPAL) (IATA:KTM) | Meteo·Mobile Aviation Weather
aviador You're here:

VNKT Decoded Metar

KATHMANDU in NEPAL
Report Time2018-11-20 17:20:00
UTC Time2018-11-20 18:02:07
Flight Rules ifr IFR
WindVRB at 02 kt
Visibility3000 m
Phenomena:Mist
Clouds:Few 015 Hf
Expected CloudBase > 800 ft AGL from Temp-Dew spread
CeilingNone
Temp11°C (ISA +5)
Dew Point09°C (88% RH)
AAT10.1°C
QNH1021 hPa
Density Alt4,843 ft
Elevation4,386 ft
Report Wrong Elevation
Raw Report
VNKT 201720Z VRB02KT 3000 BR FEW015 11/09 Q1021 NOSIG=

Extra information for VNKT:More info

Metar Taf Metar & Taf Last 4 Metars F.Rules Stats Wind Profile Meteogram Temp Stats Airport Information Weather charts Add Link Nearby VenuesMetar ALERT Operation Metar Decoded Social comments